nws-alerts: Checking more than four warning/county codes can delay the loading of your pages. You should use a cron job to get the data.
EllijayWeather Station Historical Data
Daily Summary for September 2, 2018 Units:  English    Metric   Both
Daily Weekly Monthly Yearly Custom
  High: Low: Average:
Temperature: 85.8 °F 66.9 °F 75.3 °F
Dew Point: 73.9 °F 65.5 °F 69.7 °F
Humidity: 95% 60% 84%
Wind Speed: 2mph 0mph 0mph
Wind Gust: 5mph - -
Wind- - SSE
Pressure: 30.26 in 30.14 in -
Precipitation: 0 in    
Historical Graphs
 
 
Tabular Data for September 2, 2018
Time Temperature Dew Point Pressure Wind Wind Speed Wind Gust Humidity Rainfall Rate (Hourly) solar
00:04 70.3 °F 68.2 °F 30.18 in Calm     93% 0 in meteobridge W/m2
00:09 70.2 °F 68 °F 30.18 in Calm     93% 0 in meteobridge W/m2
00:14 70.2 °F 68 °F 30.18 in Calm     93% 0 in meteobridge W/m2
00:19 70 °F 67.8 °F 30.18 in Calm     93% 0 in meteobridge W/m2
00:24 70 °F 67.8 °F 30.18 in Calm     93% 0 in meteobridge W/m2
00:29 69.8 °F 67.6 °F 30.17 in Calm     93% 0 in meteobridge W/m2
00:34 69.8 °F 68 °F 30.18 in Calm     94% 0 in meteobridge W/m2
00:39 69.8 °F 68 °F 30.18 in Calm     94% 0 in meteobridge W/m2
00:44 69.8 °F 68 °F 30.18 in Calm     94% 0 in meteobridge W/m2
00:49 69.8 °F 68 °F 30.18 in Calm     94% 0 in meteobridge W/m2
00:54 69.6 °F 67.8 °F 30.18 in Calm     94% 0 in meteobridge W/m2
00:59 69.6 °F 67.8 °F 30.17 in Calm     94% 0 in meteobridge W/m2
01:04 69.6 °F 67.8 °F 30.17 in Calm     94% 0 in meteobridge W/m2
01:09 69.4 °F 67.6 °F 30.17 in Calm     94% 0 in meteobridge W/m2
01:14 69.4 °F 67.6 °F 30.17 in Calm     94% 0 in meteobridge W/m2
01:19 69.4 °F 67.6 °F 30.17 in Calm     94% 0 in meteobridge W/m2
01:24 69.3 °F 67.5 °F 30.17 in Calm     94% 0 in meteobridge W/m2
01:29 69.3 °F 67.5 °F 30.17 in Calm     94% 0 in meteobridge W/m2
01:34 69.1 °F 67.3 °F 30.17 in Calm     94% 0 in meteobridge W/m2
01:39 69.1 °F 67.3 °F 30.17 in Calm     94% 0 in meteobridge W/m2
01:44 69.1 °F 67.3 °F 30.17 in Calm     94% 0 in meteobridge W/m2
01:49 68.9 °F 67.1 °F 30.17 in Calm     94% 0 in meteobridge W/m2
01:54 68.7 °F 66.9 °F 30.17 in Calm     94% 0 in meteobridge W/m2
01:59 68.7 °F 66.9 °F 30.17 in Calm     94% 0 in meteobridge W/m2
02:04 68.7 °F 66.9 °F 30.17 in Calm     94% 0 in meteobridge W/m2
02:09 68.7 °F 66.9 °F 30.17 in Calm     94% 0 in meteobridge W/m2
02:14 68.7 °F 66.9 °F 30.17 in Calm     94% 0 in meteobridge W/m2
02:19 68.7 °F 66.9 °F 30.17 in Calm     94% 0 in meteobridge W/m2
02:24 68.7 °F 66.9 °F 30.17 in Calm     94% 0 in meteobridge W/m2
02:29 68.7 °F 66.9 °F 30.17 in Calm     94% 0 in meteobridge W/m2
02:34 68.5 °F 66.7 °F 30.17 in Calm     94% 0 in meteobridge W/m2
02:39 68.7 °F 66.9 °F 30.17 in Calm     94% 0 in meteobridge W/m2
02:44 68.5 °F 66.7 °F 30.17 in Calm     94% 0 in meteobridge W/m2
02:49 68.5 °F 66.7 °F 30.16 in Calm     94% 0 in meteobridge W/m2
02:54 68.5 °F 66.7 °F 30.16 in Calm     94% 0 in meteobridge W/m2
02:59 68.5 °F 66.7 °F 30.17 in Calm     94% 0 in meteobridge W/m2
03:04 68.5 °F 66.7 °F 30.17 in Calm     94% 0 in meteobridge W/m2
03:09 68.5 °F 66.7 °F 30.17 in Calm     94% 0 in meteobridge W/m2
03:14 68.4 °F 66.6 °F 30.17 in Calm     94% 0 in meteobridge W/m2
03:19 68.4 °F 66.6 °F 30.17 in Calm     94% 0 in meteobridge W/m2
03:24 68.4 °F 66.9 °F 30.17 in Calm     95% 0 in meteobridge W/m2
03:29 68.4 °F 66.9 °F 30.17 in Calm     95% 0 in meteobridge W/m2
03:34 68.4 °F 66.9 °F 30.17 in Calm     95% 0 in meteobridge W/m2
03:39 68.4 °F 66.9 °F 30.17 in Calm     95% 0 in meteobridge W/m2
03:44 68.4 °F 66.9 °F 30.18 in Calm     95% 0 in meteobridge W/m2
03:49 68.2 °F 66.7 °F 30.18 in Calm     95% 0 in meteobridge W/m2
03:54 68.2 °F 66.7 °F 30.18 in Calm     95% 0 in meteobridge W/m2
03:59 68.2 °F 66.7 °F 30.17 in Calm     95% 0 in meteobridge W/m2
04:04 68.2 °F 66.7 °F 30.17 in Calm     95% 0 in meteobridge W/m2
04:09 68 °F 66.2 °F 30.17 in Calm     94% 0 in meteobridge W/m2
04:14 67.8 °F 66 °F 30.17 in Calm     94% 0 in meteobridge W/m2
04:19 67.8 °F 66 °F 30.17 in Calm     94% 0 in meteobridge W/m2
04:24 67.6 °F 65.8 °F 30.17 in Calm     94% 0 in meteobridge W/m2
04:29 67.6 °F 65.8 °F 30.17 in Calm     94% 0 in meteobridge W/m2
04:34 67.6 °F 66.2 °F 30.17 in Calm     95% 0 in meteobridge W/m2
04:39 67.6 °F 66.2 °F 30.17 in Calm     95% 0 in meteobridge W/m2
04:44 67.5 °F 66 °F 30.18 in Calm     95% 0 in meteobridge W/m2
04:49 67.5 °F 66 °F 30.18 in Calm     95% 0 in meteobridge W/m2
04:54 67.5 °F 65.7 °F 30.18 in Calm     94% 0 in meteobridge W/m2
04:59 67.5 °F 66 °F 30.18 in Calm     95% 0 in meteobridge W/m2
05:04 67.5 °F 66 °F 30.18 in Calm     95% 0 in meteobridge W/m2
05:09 67.3 °F 65.8 °F 30.18 in Calm     95% 0 in meteobridge W/m2
05:14 67.3 °F 65.8 °F 30.18 in Calm     95% 0 in meteobridge W/m2
05:19 67.3 °F 65.8 °F 30.18 in Calm     95% 0 in meteobridge W/m2
05:24 67.3 °F 65.8 °F 30.19 in Calm     95% 0 in meteobridge W/m2
05:29 66.9 °F 65.5 °F 30.19 in Calm     95% 0 in meteobridge W/m2
05:34 66.9 °F 65.5 °F 30.19 in Calm     95% 0 in meteobridge W/m2
05:39 66.9 °F 65.5 °F 30.19 in Calm     95% 0 in meteobridge W/m2
05:44 66.9 °F 65.5 °F 30.20 in Calm     95% 0 in meteobridge W/m2
05:49 66.9 °F 65.5 °F 30.20 in Calm     95% 0 in meteobridge W/m2
05:54 66.9 °F 65.5 °F 30.20 in Calm     95% 0 in meteobridge W/m2
05:59 66.9 °F 65.5 °F 30.20 in Calm     95% 0 in meteobridge W/m2
06:04 66.9 °F 65.5 °F 30.20 in Calm     95% 0 in meteobridge W/m2
06:09 66.9 °F 65.5 °F 30.21 in Calm     95% 0 in meteobridge W/m2
06:14 66.9 °F 65.5 °F 30.21 in Calm     95% 0 in meteobridge W/m2
06:19 66.9 °F 65.5 °F 30.21 in Calm     95% 0 in meteobridge W/m2
06:24 66.9 °F 65.5 °F 30.21 in Calm     95% 0 in meteobridge W/m2
06:29 67.1 °F 65.7 °F 30.21 in Calm     95% 0 in meteobridge W/m2
06:34 67.1 °F 65.7 °F 30.22 in Calm     95% 0 in meteobridge W/m2
06:39 67.3 °F 65.8 °F 30.22 in Calm     95% 0 in meteobridge W/m2
06:44 67.3 °F 65.8 °F 30.22 in Calm     95% 0 in meteobridge W/m2
06:49 67.3 °F 65.8 °F 30.22 in Calm     95% 0 in meteobridge W/m2
06:54 67.3 °F 65.8 °F 30.22 in Calm     95% 0 in meteobridge W/m2
06:59 67.5 °F 66 °F 30.22 in Calm     95% 0 in meteobridge W/m2
07:04 67.5 °F 66 °F 30.22 in Calm     95% 0 in meteobridge W/m2
07:09 67.6 °F 66.2 °F 30.22 in Calm     95% 0 in meteobridge W/m2
07:14 67.6 °F 66.2 °F 30.23 in Calm     95% 0 in meteobridge W/m2
07:19 67.6 °F 66.2 °F 30.23 in Calm     95% 0 in meteobridge W/m2
07:24 67.6 °F 66.2 °F 30.23 in Calm     95% 0 in meteobridge W/m2
07:29 67.6 °F 66.2 °F 30.23 in Calm     95% 0 in meteobridge W/m2
07:34 67.6 °F 66.2 °F 30.23 in Calm     95% 0 in meteobridge W/m2
07:39 67.8 °F 66.4 °F 30.24 in Calm     95% 0 in meteobridge W/m2
07:44 67.8 °F 66.4 °F 30.24 in Calm     95% 0 in meteobridge W/m2
07:49 68.2 °F 66.7 °F 30.24 in Calm     95% 0 in meteobridge W/m2
07:54 68.2 °F 66.7 °F 30.24 in Calm     95% 0 in meteobridge W/m2
07:59 68.4 °F 66.9 °F 30.24 in Calm     95% 0 in meteobridge W/m2
08:04 68.5 °F 67.1 °F 30.24 in Calm     95% 0 in meteobridge W/m2
08:09 68.7 °F 67.3 °F 30.24 in Calm     95% 0 in meteobridge W/m2
08:14 68.9 °F 67.5 °F 30.25 in Calm     95% 0 in meteobridge W/m2
08:19 69.3 °F 67.8 °F 30.25 in Calm     95% 0 in meteobridge W/m2
08:24 69.4 °F 68 °F 30.25 in Calm     95% 0 in meteobridge W/m2
08:29 69.4 °F 68 °F 30.25 in Calm     95% 0 in meteobridge W/m2
08:34 69.6 °F 68.2 °F 30.25 in Calm     95% 0 in meteobridge W/m2
08:39 70 °F 68.5 °F 30.25 in Calm     95% 0 in meteobridge W/m2
08:44 70 °F 68.5 °F 30.25 in Calm     95% 0 in meteobridge W/m2
08:49 70.2 °F 68.7 °F 30.25 in Calm     95% 0 in meteobridge W/m2
08:54 70.3 °F 68.9 °F 30.26 in Calm     95% 0 in meteobridge W/m2
08:59 70.3 °F 68.9 °F 30.25 in Calm     95% 0 in meteobridge W/m2
09:04 70.7 °F 69.3 °F 30.25 in Calm     95% 0 in meteobridge W/m2
09:09 70.9 °F 69.4 °F 30.25 in Calm     95% 0 in meteobridge W/m2
09:14 71.1 °F 69.6 °F 30.25 in Calm     95% 0 in meteobridge W/m2
09:19 71.2 °F 69.8 °F 30.25 in Calm     95% 0 in meteobridge W/m2
09:24 71.4 °F 70 °F 30.25 in Calm     95% 0 in meteobridge W/m2
09:29 71.8 °F 70.3 °F 30.25 in Calm     95% 0 in meteobridge W/m2
09:34 72.1 °F 70.7 °F 30.25 in Calm     95% 0 in meteobridge W/m2
09:39 72.3 °F 70.9 °F 30.26 in Calm     95% 0 in meteobridge W/m2
09:44 72.7 °F 71.2 °F 30.26 in Calm     95% 0 in meteobridge W/m2
09:49 73.4 °F 72 °F 30.26 in Calm     95% 0 in meteobridge W/m2
09:54 73.8 °F 72.3 °F 30.26 in Calm     95% 0 in meteobridge W/m2
09:59 74.1 °F 72.3 °F 30.26 in Calm     94% 0 in meteobridge W/m2
10:04 74.5 °F 72.7 °F 30.26 in Calm     94% 0 in meteobridge W/m2
10:09 74.7 °F 72.9 °F 30.26 in Calm     94% 0 in meteobridge W/m2
10:14 74.8 °F 73 °F 30.26 in Calm     94% 0 in meteobridge W/m2
10:19 75.4 °F 73.2 °F 30.26 in Calm     93% 0 in meteobridge W/m2
10:24 75.9 °F 73 °F 30.26 in Calm     91% 0 in meteobridge W/m2
10:29 76.6 °F 73.4 °F 30.25 in Calm     90% 0 in meteobridge W/m2
10:34 77.2 °F 73.4 °F 30.26 in Calm     88% 0 in meteobridge W/m2
10:39 77.5 °F 73.4 °F 30.26 in Calm     87% 0 in meteobridge W/m2
10:44 78.1 °F 73.6 °F 30.25 in Calm     86% 0 in meteobridge W/m2
10:49 78.4 °F 73.9 °F 30.26 in Calm     86% 0 in meteobridge W/m2
10:54 78.6 °F 73.4 °F 30.26 in Calm     84% 0 in meteobridge W/m2
10:59 78.8 °F 73.6 °F 30.26 in Calm     84% 0 in meteobridge W/m2
11:04 79 °F 73.4 °F 30.26 in Calm     83% 0 in meteobridge W/m2
11:09 79.2 °F 73.2 °F 30.26 in Calm     82% 0 in meteobridge W/m2
11:14 79.7 °F 73.8 °F 30.26 in Calm     82% 0 in meteobridge W/m2
11:19 80.1 °F 73.8 °F 30.26 in Calm     81% 0 in meteobridge W/m2
11:24 80.2 °F 73.6 °F 30.25 in Calm     80% 0 in meteobridge W/m2
11:29 80.6 °F 73 °F 30.25 in Calm     78% 0 in meteobridge W/m2
11:34 80.8 °F 73.2 °F 30.25 in Calm     78% 0 in meteobridge W/m2
11:39 80.8 °F 72.9 °F 30.24 in Calm     77% 0 in meteobridge W/m2
11:44 81.1 °F 72.9 °F 30.24 in Calm   3 mph 76% 0 in meteobridge W/m2
11:49 81.3 °F 73 °F 30.24 in Calm     76% 0 in meteobridge W/m2
11:54 81.5 °F 73.2 °F 30.24 in Calm     76% 0 in meteobridge W/m2
11:59 81.7 °F 73.4 °F 30.24 in NW 0.9 mph 1 mph 76% 0 in meteobridge W/m2
12:04 81.3 °F 73 °F 30.23 in SSW 0.9 mph 1 mph 76% 0 in meteobridge W/m2
12:09 81.5 °F 72.9 °F 30.23 in SE 0.9 mph 1 mph 75% 0 in meteobridge W/m2
12:14 81.9 °F 72.7 °F 30.23 in Calm   2 mph 74% 0 in meteobridge W/m2
12:19 82 °F 72.9 °F 30.23 in Calm   1 mph 74% 0 in meteobridge W/m2
12:24 82.2 °F 72.3 °F 30.23 in Calm   1 mph 72% 0 in meteobridge W/m2
12:29 82.6 °F 73 °F 30.22 in Calm   1 mph 73% 0 in meteobridge W/m2
12:34 82.8 °F 73.2 °F 30.22 in Calm     73% 0 in meteobridge W/m2
12:39 83.1 °F 72.7 °F 30.22 in Calm   1 mph 71% 0 in meteobridge W/m2
12:44 83.1 °F 72.7 °F 30.22 in Calm   4 mph 71% 0 in meteobridge W/m2
12:49 83.3 °F 72.5 °F 30.22 in SE 0.9 mph 4 mph 70% 0 in meteobridge W/m2
12:54 83.3 °F 72.5 °F 30.22 in Calm     70% 0 in meteobridge W/m2
12:59 83.5 °F 73 °F 30.22 in Calm   1 mph 71% 0 in meteobridge W/m2
13:04 83.7 °F 72.9 °F 30.22 in Calm   1 mph 70% 0 in meteobridge W/m2
13:09 83.8 °F 72.5 °F 30.21 in Calm   1 mph 69% 0 in meteobridge W/m2
13:14 84.2 °F 72.9 °F 30.21 in Calm   1 mph 69% 0 in meteobridge W/m2
13:19 84 °F 72.3 °F 30.20 in Calm   1 mph 68% 0 in meteobridge W/m2
13:24 83.8 °F 72.5 °F 30.21 in Calm     69% 0 in meteobridge W/m2
13:29 84 °F 72 °F 30.21 in Calm   1 mph 67% 0 in meteobridge W/m2
13:34 84.4 °F 72.7 °F 30.20 in Calm   2 mph 68% 0 in meteobridge W/m2
13:39 84.6 °F 72.3 °F 30.20 in Calm   2 mph 67% 0 in meteobridge W/m2
13:44 84.6 °F 72.3 °F 30.20 in Calm   2 mph 67% 0 in meteobridge W/m2
13:49 84.9 °F 73.6 °F 30.20 in Calm   2 mph 69% 0 in meteobridge W/m2
13:54 84.9 °F 72.7 °F 30.20 in Calm   4 mph 67% 0 in meteobridge W/m2
13:59 84.9 °F 71.8 °F 30.19 in ENE 0.9 mph 3 mph 65% 0 in meteobridge W/m2
14:04 85.1 °F 72.5 °F 30.19 in Calm   1 mph 66% 0 in meteobridge W/m2
14:09 85.3 °F 72.7 °F 30.19 in Calm   1 mph 66% 0 in meteobridge W/m2
14:14 85.3 °F 73 °F 30.19 in Calm   1 mph 67% 0 in meteobridge W/m2
14:19 85.3 °F 72.1 °F 30.19 in Calm   1 mph 65% 0 in meteobridge W/m2
14:24 85.5 °F 72.3 °F 30.19 in Calm   4 mph 65% 0 in meteobridge W/m2
14:29 85.5 °F 72.9 °F 30.19 in Calm   1 mph 66% 0 in meteobridge W/m2
14:34 85.3 °F 72.1 °F 30.19 in Calm   2 mph 65% 0 in meteobridge W/m2
14:39 85.3 °F 72.1 °F 30.19 in Calm   1 mph 65% 0 in meteobridge W/m2
14:44 85.3 °F 73 °F 30.19 in Calm   4 mph 67% 0 in meteobridge W/m2
14:49 85.5 °F 72.9 °F 30.18 in SE 0.9 mph 1 mph 66% 0 in meteobridge W/m2
14:54 85.5 °F 73.2 °F 30.18 in Calm     67% 0 in meteobridge W/m2
14:59 85.5 °F 72 °F 30.18 in SE 0.9 mph 1 mph 64% 0 in meteobridge W/m2
15:04 85.3 °F 72.1 °F 30.18 in Calm   4 mph 65% 0 in meteobridge W/m2
15:09 85.1 °F 73.4 °F 30.18 in Calm     68% 0 in meteobridge W/m2
15:14 85.3 °F 72.1 °F 30.18 in Calm   4 mph 65% 0 in meteobridge W/m2
15:19 85.1 °F 72 °F 30.18 in Calm   2 mph 65% 0 in meteobridge W/m2
15:24 84.9 °F 71.8 °F 30.18 in Calm   1 mph 65% 0 in meteobridge W/m2
15:29 85.1 °F 72 °F 30.17 in Calm   2 mph 65% 0 in meteobridge W/m2
15:34 85.3 °F 72.7 °F 30.17 in Calm   1 mph 66% 0 in meteobridge W/m2
15:39 85.5 °F 72.9 °F 30.17 in Calm   1 mph 66% 0 in meteobridge W/m2
15:44 85.6 °F 72.1 °F 30.17 in SE 0.9 mph 2 mph 64% 0 in meteobridge W/m2
15:49 85.6 °F 71.6 °F 30.17 in Calm     63% 0 in meteobridge W/m2
15:54 85.6 °F 70.7 °F 30.17 in Calm   5 mph 61% 0 in meteobridge W/m2
15:59 85.6 °F 71.1 °F 30.17 in Calm   1 mph 62% 0 in meteobridge W/m2
16:04 85.6 °F 70.7 °F 30.16 in Calm   2 mph 61% 0 in meteobridge W/m2
16:09 85.6 °F 71.1 °F 30.16 in ESE 0.9 mph 1 mph 62% 0 in meteobridge W/m2
16:14 85.6 °F 71.6 °F 30.16 in Calm   1 mph 63% 0 in meteobridge W/m2
16:19 85.6 °F 71.1 °F 30.16 in Calm   5 mph 62% 0 in meteobridge W/m2
16:24 85.8 °F 71.8 °F 30.16 in Calm   1 mph 63% 0 in meteobridge W/m2
16:29 85.6 °F 71.1 °F 30.16 in Calm   1 mph 62% 0 in meteobridge W/m2
16:34 85.6 °F 70.7 °F 30.16 in Calm     61% 0 in meteobridge W/m2
16:39 85.5 °F 71.4 °F 30.16 in Calm   1 mph 63% 0 in meteobridge W/m2
16:44 85.3 °F 70.7 °F 30.16 in Calm   4 mph 62% 0 in meteobridge W/m2
16:49 84.9 °F 70.9 °F 30.17 in Calm   1 mph 63% 0 in meteobridge W/m2
16:54 84.9 °F 69.4 °F 30.16 in Calm   1 mph 60% 0 in meteobridge W/m2
16:59 85.3 °F 70.3 °F 30.16 in Calm   2 mph 61% 0 in meteobridge W/m2
17:04 85.3 °F 70.7 °F 30.16 in ESE 2 mph 2 mph 62% 0 in meteobridge W/m2
17:09 85.3 °F 71.2 °F 30.16 in Calm   2 mph 63% 0 in meteobridge W/m2
17:14 85.3 °F 70.3 °F 30.16 in Calm   4 mph 61% 0 in meteobridge W/m2
17:19 85.3 °F 69.8 °F 30.16 in Calm   4 mph 60% 0 in meteobridge W/m2
17:24 85.1 °F 70.2 °F 30.15 in Calm   1 mph 61% 0 in meteobridge W/m2
17:29 84.9 °F 70 °F 30.15 in Calm   5 mph 61% 0 in meteobridge W/m2
17:34 84.9 °F 70 °F 30.15 in Calm   1 mph 61% 0 in meteobridge W/m2
17:39 84.9 °F 70 °F 30.14 in Calm   1 mph 61% 0 in meteobridge W/m2
17:44 84.7 °F 70.3 °F 30.15 in Calm     62% 0 in meteobridge W/m2
17:49 84.6 °F 70.5 °F 30.15 in Calm     63% 0 in meteobridge W/m2
17:54 84.4 °F 70.9 °F 30.15 in Calm     64% 0 in meteobridge W/m2
17:59 84.2 °F 71.2 °F 30.15 in Calm     65% 0 in meteobridge W/m2
18:04 84 °F 71.1 °F 30.15 in Calm     65% 0 in meteobridge W/m2
18:09 83.8 °F 69.4 °F 30.15 in Calm     62% 0 in meteobridge W/m2
18:14 83.8 °F 70 °F 30.15 in Calm     63% 0 in meteobridge W/m2
18:19 84 °F 69.6 °F 30.15 in Calm   1 mph 62% 0 in meteobridge W/m2
18:24 83.8 °F 70 °F 30.15 in Calm     63% 0 in meteobridge W/m2
18:29 83.8 °F 71.2 °F 30.15 in Calm     66% 0 in meteobridge W/m2
18:34 83.5 °F 72.3 °F 30.15 in Calm     69% 0 in meteobridge W/m2
18:39 82.9 °F 71.2 °F 30.15 in Calm     68% 0 in meteobridge W/m2
18:44 82.6 °F 71.8 °F 30.15 in Calm     70% 0 in meteobridge W/m2
18:49 82 °F 72.5 °F 30.15 in Calm     73% 0 in meteobridge W/m2
18:54 81.7 °F 72.5 °F 30.15 in Calm     74% 0 in meteobridge W/m2
18:59 81.3 °F 72.7 °F 30.15 in Calm     75% 0 in meteobridge W/m2
19:04 80.8 °F 72.5 °F 30.15 in Calm     76% 0 in meteobridge W/m2
19:09 80.4 °F 72.5 °F 30.15 in Calm     77% 0 in meteobridge W/m2
19:14 80.1 °F 72.5 °F 30.15 in Calm     78% 0 in meteobridge W/m2
19:19 79.9 °F 72.9 °F 30.15 in Calm     79% 0 in meteobridge W/m2
19:24 79.5 °F 72.5 °F 30.15 in Calm     79% 0 in meteobridge W/m2
19:29 79.3 °F 73 °F 30.15 in Calm     81% 0 in meteobridge W/m2
19:34 79 °F 72.7 °F 30.15 in Calm     81% 0 in meteobridge W/m2
19:39 78.6 °F 72.7 °F 30.15 in Calm     82% 0 in meteobridge W/m2
19:44 78.4 °F 72.5 °F 30.15 in Calm     82% 0 in meteobridge W/m2
19:49 78.1 °F 72.5 °F 30.15 in Calm     83% 0 in meteobridge W/m2
19:54 77.7 °F 72.5 °F 30.15 in Calm     84% 0 in meteobridge W/m2
19:59 77.4 °F 72.1 °F 30.16 in Calm     84% 0 in meteobridge W/m2
20:04 76.8 °F 71.6 °F 30.16 in Calm     84% 0 in meteobridge W/m2
20:09 76.6 °F 71.8 °F 30.16 in Calm     85% 0 in meteobridge W/m2
20:14 76.5 °F 71.6 °F 30.16 in Calm     85% 0 in meteobridge W/m2
20:19 76.3 °F 71.8 °F 30.16 in Calm     86% 0 in meteobridge W/m2
20:24 76.1 °F 71.6 °F 30.16 in Calm     86% 0 in meteobridge W/m2
20:29 75.7 °F 71.2 °F 30.17 in Calm     86% 0 in meteobridge W/m2
20:34 75.6 °F 71.4 °F 30.17 in Calm     87% 0 in meteobridge W/m2
20:39 75.4 °F 71.2 °F 30.17 in Calm     87% 0 in meteobridge W/m2
20:44 75 °F 71.2 °F 30.17 in Calm     88% 0 in meteobridge W/m2
20:49 74.8 °F 71.1 °F 30.18 in Calm     88% 0 in meteobridge W/m2
20:54 74.8 °F 71.1 °F 30.18 in Calm     88% 0 in meteobridge W/m2
20:59 74.7 °F 70.9 °F 30.18 in Calm     88% 0 in meteobridge W/m2
21:04 74.1 °F 70.7 °F 30.19 in Calm     89% 0 in meteobridge W/m2
21:09 74.1 °F 70.7 °F 30.19 in Calm     89% 0 in meteobridge W/m2
21:14 73.9 °F 70.5 °F 30.19 in Calm     89% 0 in meteobridge W/m2
21:19 73.8 °F 70.7 °F 30.19 in Calm     90% 0 in meteobridge W/m2
21:24 73.6 °F 70.5 °F 30.20 in Calm     90% 0 in meteobridge W/m2
21:29 73.6 °F 70.5 °F 30.20 in Calm     90% 0 in meteobridge W/m2
21:34 73.2 °F 70.2 °F 30.20 in Calm     90% 0 in meteobridge W/m2
21:39 73.2 °F 70.2 °F 30.21 in Calm     90% 0 in meteobridge W/m2
21:44 73 °F 70 °F 30.21 in Calm     90% 0 in meteobridge W/m2
21:49 72.9 °F 70.2 °F 30.21 in Calm     91% 0 in meteobridge W/m2
21:54 72.7 °F 70 °F 30.21 in Calm     91% 0 in meteobridge W/m2
21:59 72.5 °F 69.8 °F 30.21 in Calm     91% 0 in meteobridge W/m2
22:04 72.3 °F 69.6 °F 30.21 in Calm     91% 0 in meteobridge W/m2
22:09 72.3 °F 69.6 °F 30.22 in Calm     91% 0 in meteobridge W/m2
22:14 72.1 °F 69.4 °F 30.22 in Calm     91% 0 in meteobridge W/m2
22:19 72.1 °F 69.6 °F 30.22 in Calm     92% 0 in meteobridge W/m2
22:24 72 °F 69.4 °F 30.22 in Calm     92% 0 in meteobridge W/m2
22:29 72 °F 69.4 °F 30.22 in Calm     92% 0 in meteobridge W/m2
22:34 71.8 °F 69.3 °F 30.22 in Calm     92% 0 in meteobridge W/m2
22:39 71.8 °F 69.3 °F 30.22 in Calm     92% 0 in meteobridge W/m2
22:44 71.8 °F 69.3 °F 30.22 in Calm     92% 0 in meteobridge W/m2
22:49 71.6 °F 69.1 °F 30.22 in Calm     92% 0 in meteobridge W/m2
22:54 71.4 °F 68.9 °F 30.22 in Calm     92% 0 in meteobridge W/m2
22:59 71.4 °F 68.9 °F 30.23 in Calm     92% 0 in meteobridge W/m2
23:04 71.4 °F 68.9 °F 30.23 in Calm     92% 0 in meteobridge W/m2
23:09 71.4 °F 68.9 °F 30.23 in Calm     92% 0 in meteobridge W/m2
23:14 71.2 °F 68.7 °F 30.23 in Calm     92% 0 in meteobridge W/m2
23:19 71.2 °F 68.7 °F 30.24 in Calm     92% 0 in meteobridge W/m2
23:24 71.1 °F 68.9 °F 30.24 in Calm     93% 0 in meteobridge W/m2
23:29 71.1 °F 68.9 °F 30.24 in Calm     93% 0 in meteobridge W/m2
23:34 70.9 °F 68.7 °F 30.24 in Calm     93% 0 in meteobridge W/m2
23:39 70.9 °F 68.7 °F 30.24 in Calm     93% 0 in meteobridge W/m2
23:44 70.9 °F 68.7 °F 30.23 in Calm     93% 0 in meteobridge W/m2
23:49 70.9 °F 68.7 °F 30.23 in Calm     93% 0 in meteobridge W/m2
23:54 70.7 °F 68.5 °F 30.24 in Calm     93% 0 in meteobridge W/m2
23:59 70.5 °F 68.4 °F 30.24 in Calm     93% 0 in meteobridge W/m2
EllijayWeather
Compliments of Weather Underground - 2.5 mb